createdAt,value
2022-10-18T00:01:22.116Z,17.25
2022-10-18T00:03:50.916Z,17.28
2022-10-18T00:06:19.912Z,17.31
2022-10-18T00:08:48.705Z,17.32
2022-10-18T00:11:17.727Z,17.34
2022-10-18T00:13:48.033Z,17.37
2022-10-18T00:16:19.019Z,17.36
2022-10-18T00:18:48.957Z,17.35
2022-10-18T00:21:19.860Z,17.32
2022-10-18T00:23:50.167Z,17.30
2022-10-18T00:26:21.456Z,17.30
2022-10-18T00:28:54.891Z,17.31
2022-10-18T00:31:26.036Z,17.31
2022-10-18T00:33:58.688Z,17.34
2022-10-18T00:36:29.320Z,17.34
2022-10-18T00:38:58.798Z,17.35
2022-10-18T00:41:30.390Z,17.36
2022-10-18T00:44:02.434Z,17.35
2022-10-18T00:46:33.364Z,17.35
2022-10-18T00:49:04.628Z,17.36
2022-10-18T00:51:38.791Z,17.38
2022-10-18T00:54:07.952Z,17.37
2022-10-18T00:56:37.109Z,17.38
2022-10-18T00:59:08.296Z,17.36
2022-10-18T01:01:37.622Z,17.35
2022-10-18T01:04:06.573Z,17.34
2022-10-18T01:06:44.445Z,17.35
2022-10-18T01:09:23.738Z,17.40
2022-10-18T01:12:16.599Z,17.37
2022-10-18T01:14:54.055Z,17.38
2022-10-18T01:17:28.553Z,17.36
2022-10-18T01:20:36.137Z,17.36
2022-10-18T01:23:09.807Z,17.37
2022-10-18T01:25:51.547Z,17.32
2022-10-18T01:28:46.658Z,17.33
2022-10-18T01:31:21.233Z,17.29
2022-10-18T01:33:53.350Z,17.32
2022-10-18T01:36:28.321Z,17.29
2022-10-18T01:39:01.486Z,17.31
2022-10-18T01:41:31.116Z,17.33
2022-10-18T01:44:03.024Z,17.29
2022-10-18T01:46:34.400Z,17.28
2022-10-18T01:49:03.601Z,17.24
2022-10-18T01:51:33.756Z,17.26
2022-10-18T01:54:03.122Z,17.24
2022-10-18T01:56:42.074Z,17.20
2022-10-18T01:59:27.336Z,17.21
2022-10-18T02:02:07.755Z,17.21
2022-10-18T02:04:45.445Z,17.20
2022-10-18T02:07:24.538Z,17.15
2022-10-18T02:10:02.272Z,17.16
2022-10-18T02:12:33.218Z,17.16
2022-10-18T02:15:04.096Z,17.13
2022-10-18T02:17:34.534Z,17.14
2022-10-18T02:20:05.549Z,17.12
2022-10-18T02:22:36.510Z,17.10
2022-10-18T02:25:10.778Z,17.09
2022-10-18T02:27:40.443Z,17.06
2022-10-18T02:30:10.929Z,17.05
2022-10-18T02:32:47.965Z,17.03
2022-10-18T02:35:24.407Z,16.97
2022-10-18T02:37:55.259Z,16.93
2022-10-18T02:40:24.476Z,16.90
2022-10-18T02:42:56.898Z,16.86
2022-10-18T02:45:26.577Z,16.89
2022-10-18T02:47:56.816Z,16.84
2022-10-18T02:50:25.846Z,16.84
2022-10-18T02:52:54.714Z,16.84
2022-10-18T02:55:23.791Z,16.82
2022-10-18T02:57:52.664Z,16.79
2022-10-18T03:00:21.839Z,16.77
2022-10-18T03:02:51.087Z,16.75
2022-10-18T03:05:21.531Z,16.76
2022-10-18T03:07:50.415Z,16.76
2022-10-18T03:10:19.575Z,16.76
2022-10-18T03:12:48.459Z,16.74
2022-10-18T03:15:17.551Z,16.68
2022-10-18T03:17:46.467Z,16.69
2022-10-18T03:20:15.530Z,16.64
2022-10-18T03:22:45.694Z,16.66
2022-10-18T03:25:14.844Z,16.64
2022-10-18T03:27:43.657Z,16.63
2022-10-18T03:30:13.791Z,16.62
2022-10-18T03:32:42.703Z,16.58
2022-10-18T03:35:12.285Z,16.56
2022-10-18T03:37:41.201Z,16.56
2022-10-18T03:40:12.533Z,16.55
2022-10-18T03:42:41.376Z,16.53
2022-10-18T03:45:11.098Z,16.49
2022-10-18T03:47:39.992Z,16.47
2022-10-18T03:50:09.713Z,16.47
2022-10-18T03:52:38.610Z,16.44
2022-10-18T03:55:10.208Z,16.43
2022-10-18T03:57:39.060Z,16.40
2022-10-18T04:00:09.393Z,16.40
2022-10-18T04:02:41.271Z,16.38
2022-10-18T04:05:10.951Z,16.36
2022-10-18T04:07:39.878Z,16.35
2022-10-18T04:10:11.035Z,16.35
2022-10-18T04:12:40.064Z,16.31
2022-10-18T04:15:10.249Z,16.29
2022-10-18T04:17:39.145Z,16.29
2022-10-18T04:20:09.249Z,16.28
2022-10-18T04:22:38.096Z,16.24
2022-10-18T04:25:07.769Z,16.24
2022-10-18T04:27:38.210Z,16.23
2022-10-18T04:30:08.375Z,16.22
2022-10-18T04:32:37.224Z,16.20
2022-10-18T04:35:07.389Z,16.19
2022-10-18T04:37:36.348Z,16.17
2022-10-18T04:40:06.386Z,16.17
2022-10-18T04:42:35.234Z,16.14
2022-10-18T04:45:06.485Z,16.09
2022-10-18T04:47:35.572Z,16.04
2022-10-18T04:50:05.872Z,16.06
2022-10-18T04:52:34.994Z,16.07
2022-10-18T04:55:04.040Z,16.06
2022-10-18T04:57:33.157Z,16.05
2022-10-18T05:00:02.496Z,16.05
2022-10-18T05:02:32.961Z,16.02
2022-10-18T05:05:02.257Z,15.99
2022-10-18T05:07:31.482Z,15.97
2022-10-18T05:10:00.502Z,15.96
2022-10-18T05:12:29.699Z,15.97
2022-10-18T05:14:58.927Z,15.95
2022-10-18T05:17:27.812Z,15.97
2022-10-18T05:19:58.196Z,15.95
2022-10-18T05:22:26.866Z,15.92
2022-10-18T05:24:55.889Z,15.92
2022-10-18T05:27:24.772Z,15.90
2022-10-18T05:29:53.780Z,15.87
2022-10-18T05:32:22.726Z,15.85
2022-10-18T05:34:51.790Z,15.83
2022-10-18T05:37:26.017Z,15.82
2022-10-18T05:39:57.266Z,15.81
2022-10-18T05:42:26.295Z,15.81
2022-10-18T05:44:55.307Z,15.80
2022-10-18T05:47:24.163Z,15.82
2022-10-18T05:49:53.246Z,15.84
2022-10-18T05:52:23.495Z,15.84
2022-10-18T05:54:52.560Z,15.83
2022-10-18T05:57:21.413Z,15.83
2022-10-18T05:59:50.432Z,15.84
2022-10-18T06:02:19.402Z,15.83
2022-10-18T06:04:48.520Z,15.81
2022-10-18T06:07:17.905Z,15.79
2022-10-18T06:09:48.412Z,15.81
2022-10-18T06:12:17.246Z,15.80
2022-10-18T06:14:46.320Z,15.78
2022-10-18T06:17:15.194Z,15.76
2022-10-18T06:19:44.505Z,15.76
2022-10-18T06:22:13.360Z,15.77
2022-10-18T06:24:42.369Z,15.76
2022-10-18T06:27:12.574Z,15.75
2022-10-18T06:29:41.915Z,15.74
2022-10-18T06:32:10.933Z,15.75
2022-10-18T06:34:40.028Z,15.76
2022-10-18T06:37:09.393Z,15.74
2022-10-18T06:39:38.385Z,15.73
2022-10-18T06:42:07.181Z,15.73
2022-10-18T06:44:37.862Z,15.74
2022-10-18T06:47:08.225Z,15.74
2022-10-18T06:49:37.321Z,15.75
2022-10-18T06:52:07.316Z,15.74
2022-10-18T06:54:36.190Z,15.72
2022-10-18T06:57:05.141Z,15.65
2022-10-18T06:59:34.224Z,15.69
2022-10-18T07:02:04.468Z,15.71
2022-10-18T07:04:33.591Z,15.70
2022-10-18T07:07:02.439Z,15.72
2022-10-18T07:09:31.684Z,15.68
2022-10-18T07:12:00.540Z,15.70
2022-10-18T07:14:29.704Z,15.70
2022-10-18T07:17:01.301Z,15.71
2022-10-18T07:19:31.684Z,15.72
2022-10-18T07:22:00.360Z,15.69
2022-10-18T07:24:29.471Z,15.70
2022-10-18T07:26:58.318Z,15.73
2022-10-18T07:29:27.386Z,15.76
2022-10-18T07:31:56.283Z,15.78
2022-10-18T07:34:25.442Z,15.78
2022-10-18T07:36:55.641Z,15.74
2022-10-18T07:39:25.109Z,15.80
2022-10-18T07:41:54.246Z,15.81
2022-10-18T07:44:23.530Z,15.83
2022-10-18T07:46:52.359Z,15.83
2022-10-18T07:49:21.379Z,15.84
2022-10-18T07:51:50.576Z,15.83
2022-10-18T07:54:22.364Z,15.82
2022-10-18T07:56:51.198Z,15.82
2022-10-18T07:59:20.207Z,15.83
2022-10-18T08:01:49.068Z,15.83
2022-10-18T08:04:18.264Z,15.83
2022-10-18T08:06:47.715Z,15.84
2022-10-18T08:09:16.812Z,15.79
2022-10-18T08:11:47.072Z,15.78
2022-10-18T08:14:16.342Z,15.78
2022-10-18T08:16:45.186Z,15.80
2022-10-18T08:19:14.214Z,15.80
2022-10-18T08:21:43.157Z,15.79
2022-10-18T08:24:12.209Z,15.76
2022-10-18T08:26:41.108Z,15.80
2022-10-18T08:29:22.428Z,15.79
2022-10-18T08:31:53.701Z,15.80
2022-10-18T08:34:22.775Z,15.80
2022-10-18T08:36:51.607Z,15.81
2022-10-18T08:39:20.680Z,15.81
2022-10-18T08:42:15.335Z,15.82
2022-10-18T08:44:48.127Z,15.81
2022-10-18T08:47:19.922Z,15.80
2022-10-18T08:49:52.813Z,15.84
2022-10-18T08:52:31.996Z,15.82
2022-10-18T08:55:05.200Z,15.85
2022-10-18T08:57:34.543Z,15.89
2022-10-18T09:00:16.083Z,15.92
2022-10-18T09:03:08.386Z,15.93
2022-10-18T09:05:47.735Z,15.94
2022-10-18T09:08:47.674Z,15.97
2022-10-18T09:11:22.029Z,15.99
2022-10-18T09:14:25.752Z,15.95
2022-10-18T09:17:06.789Z,15.93
2022-10-18T09:19:55.034Z,15.99
2022-10-18T09:22:34.023Z,15.99
2022-10-18T09:25:12.548Z,15.99
2022-10-18T09:27:52.237Z,16.00
2022-10-18T09:30:30.537Z,16.07
2022-10-18T09:33:08.376Z,16.08
2022-10-18T09:35:45.435Z,16.09
2022-10-18T09:38:20.727Z,16.15
2022-10-18T09:40:55.306Z,16.20
2022-10-18T09:43:27.643Z,16.27
2022-10-18T09:45:57.767Z,16.29
2022-10-18T09:48:32.250Z,16.38
2022-10-18T09:51:09.083Z,16.41
2022-10-18T09:53:43.914Z,16.45
2022-10-18T09:56:17.343Z,16.53
2022-10-18T09:58:48.751Z,16.58
2022-10-18T10:01:21.733Z,16.66
2022-10-18T10:03:52.460Z,16.79
2022-10-18T10:06:29.175Z,16.88
2022-10-18T10:09:06.204Z,16.95
2022-10-18T10:11:37.857Z,17.02
2022-10-18T10:14:13.794Z,17.12
2022-10-18T10:16:50.851Z,17.18
2022-10-18T10:19:27.945Z,17.20
2022-10-18T10:22:01.116Z,17.23
2022-10-18T10:24:47.729Z,17.25
2022-10-18T10:27:21.431Z,17.14
2022-10-18T10:29:56.555Z,17.09
2022-10-18T10:32:28.713Z,17.02
2022-10-18T10:34:59.779Z,16.89
2022-10-18T10:37:35.264Z,16.95
2022-10-18T10:40:18.756Z,16.94
2022-10-18T10:43:33.100Z,16.92
2022-10-18T10:46:08.737Z,16.88
2022-10-18T10:48:48.197Z,16.90
2022-10-18T10:51:30.009Z,16.88
2022-10-18T10:54:04.970Z,16.96
2022-10-18T10:56:36.950Z,17.00
2022-10-18T10:59:14.632Z,17.15
2022-10-18T11:01:44.071Z,17.11
2022-10-18T11:04:26.321Z,17.07
2022-10-18T11:07:13.552Z,17.04
2022-10-18T11:09:58.365Z,16.92
2022-10-18T11:12:34.597Z,16.86
2022-10-18T11:15:22.128Z,16.74
2022-10-18T11:18:04.103Z,16.73
2022-10-18T11:20:38.088Z,16.75
2022-10-18T11:23:11.948Z,16.78
2022-10-18T11:26:02.986Z,16.80
2022-10-18T11:28:47.101Z,16.77
2022-10-18T11:31:20.605Z,16.79
2022-10-18T11:34:16.288Z,16.75
2022-10-18T11:36:56.367Z,16.64
2022-10-18T11:39:51.014Z,16.58
2022-10-18T11:42:27.953Z,16.47
2022-10-18T11:45:08.048Z,16.49
2022-10-18T11:47:45.773Z,16.41
2022-10-18T11:50:26.689Z,16.42
2022-10-18T11:53:05.618Z,16.41
2022-10-18T11:55:47.954Z,16.41
2022-10-18T11:58:40.911Z,16.42
2022-10-18T12:01:24.738Z,16.39
2022-10-18T12:04:03.787Z,16.39
2022-10-18T12:06:37.602Z,16.38
2022-10-18T12:09:15.692Z,16.37
2022-10-18T12:11:55.806Z,16.33
2022-10-18T12:14:26.459Z,16.25
2022-10-18T12:17:35.908Z,16.25
2022-10-18T12:19:53.102Z,16.24
2022-10-18T12:22:27.058Z,16.24
2022-10-18T12:24:55.938Z,16.21
2022-10-18T12:27:38.986Z,16.22
2022-10-18T12:30:15.447Z,16.21
2022-10-18T12:33:02.106Z,16.22
2022-10-18T12:35:45.849Z,16.19
2022-10-18T12:38:22.477Z,16.16
2022-10-18T12:40:53.760Z,16.13
2022-10-18T12:43:27.689Z,16.13
2022-10-18T12:45:59.130Z,16.11
2022-10-18T12:48:32.989Z,16.08
2022-10-18T12:51:14.109Z,16.05
2022-10-18T12:53:45.205Z,16.02
2022-10-18T12:56:41.883Z,15.98
2022-10-18T12:59:50.964Z,15.99
2022-10-18T13:02:30.593Z,15.95
2022-10-18T13:05:02.300Z,15.94
2022-10-18T13:07:41.051Z,15.94
2022-10-18T13:10:40.626Z,15.93
2022-10-18T13:14:15.728Z,15.90
2022-10-18T13:16:50.575Z,15.89
2022-10-18T13:19:42.649Z,15.88
2022-10-18T13:22:39.450Z,15.86
2022-10-18T13:25:17.963Z,15.87
2022-10-18T13:27:57.370Z,15.83
2022-10-18T13:30:54.511Z,15.83
2022-10-18T13:33:38.929Z,15.81
2022-10-18T13:36:27.800Z,15.79
2022-10-18T13:39:06.001Z,15.76
2022-10-18T13:42:06.970Z,15.72
2022-10-18T13:44:39.994Z,15.70
2022-10-18T13:47:14.979Z,15.72
2022-10-18T13:50:19.925Z,15.67
2022-10-18T13:53:30.431Z,15.67
2022-10-18T13:56:47.024Z,15.65
2022-10-18T14:02:51.112Z,15.57
2022-10-18T14:05:46.887Z,15.56
2022-10-18T14:08:20.985Z,15.54
2022-10-18T14:11:02.513Z,15.53
2022-10-18T14:13:39.985Z,15.52
2022-10-18T14:16:24.928Z,15.51
2022-10-18T14:18:58.144Z,15.48
2022-10-18T14:21:45.479Z,15.44
2022-10-18T14:24:34.131Z,15.42
2022-10-18T14:27:22.617Z,15.39
2022-10-18T14:33:00.427Z,15.39
2022-10-18T14:35:33.304Z,15.38
2022-10-18T14:38:03.428Z,15.39
2022-10-18T14:40:37.915Z,15.39
2022-10-18T14:43:12.283Z,15.37
2022-10-18T14:45:42.271Z,15.33
2022-10-18T14:48:17.159Z,15.32
2022-10-18T14:50:50.421Z,15.32
2022-10-18T14:53:22.118Z,15.29
2022-10-18T14:56:01.121Z,15.26
2022-10-18T14:58:30.267Z,15.23
2022-10-18T15:01:00.036Z,15.18
2022-10-18T15:03:29.294Z,15.16
2022-10-18T15:06:00.951Z,15.07
2022-10-18T15:08:36.661Z,15.05
2022-10-18T15:11:11.835Z,15.01
2022-10-18T15:13:49.208Z,14.99
2022-10-18T15:16:19.788Z,15.00
2022-10-18T15:19:02.820Z,14.98
2022-10-18T15:21:32.217Z,14.95
2022-10-18T15:24:20.584Z,14.93
2022-10-18T15:26:52.841Z,14.90
2022-10-18T15:29:24.785Z,14.90
2022-10-18T15:31:54.535Z,14.86
2022-10-18T15:34:25.852Z,14.82
2022-10-18T15:36:56.690Z,14.80
2022-10-18T15:39:27.487Z,14.72
2022-10-18T15:41:59.880Z,14.69
2022-10-18T15:44:32.125Z,14.68
2022-10-18T15:47:20.629Z,14.67
2022-10-18T15:49:55.220Z,14.66
2022-10-18T15:52:38.857Z,14.64
2022-10-18T15:55:49.747Z,14.62
2022-10-18T15:58:40.020Z,14.58
2022-10-18T16:01:17.114Z,14.53
2022-10-18T16:03:48.428Z,14.52
2022-10-18T16:06:18.544Z,14.49
2022-10-18T16:08:49.689Z,14.48
2022-10-18T16:11:20.867Z,14.44
2022-10-18T16:13:54.018Z,14.41
2022-10-18T16:16:27.440Z,14.36
2022-10-18T16:18:56.986Z,14.35
2022-10-18T16:21:28.017Z,14.34
2022-10-18T16:23:57.716Z,14.29
2022-10-18T16:26:28.048Z,14.26
2022-10-18T16:28:59.843Z,14.24
2022-10-18T16:31:30.713Z,14.17
2022-10-18T16:34:00.543Z,14.17
2022-10-18T16:36:31.295Z,14.15
2022-10-18T16:39:03.465Z,14.12
2022-10-18T16:41:32.411Z,14.08
2022-10-18T16:44:02.908Z,14.05
2022-10-18T16:46:33.856Z,14.03
2022-10-18T16:49:10.607Z,13.98
2022-10-18T16:51:39.417Z,13.96
2022-10-18T16:54:09.049Z,13.92
2022-10-18T16:56:38.126Z,13.92
2022-10-18T16:59:09.092Z,13.89
2022-10-18T17:01:38.389Z,13.84
2022-10-18T17:04:07.641Z,13.85
2022-10-18T17:06:36.496Z,13.85
2022-10-18T17:09:05.885Z,13.88
2022-10-18T17:11:35.130Z,13.82
2022-10-18T17:14:04.394Z,13.83
2022-10-18T17:16:36.931Z,13.80
2022-10-18T17:19:08.451Z,13.80
2022-10-18T17:21:37.425Z,13.77
2022-10-18T17:24:06.934Z,13.76
2022-10-18T17:26:36.207Z,13.76
2022-10-18T17:29:08.498Z,13.75
2022-10-18T17:31:38.875Z,13.67
2022-10-18T17:34:08.981Z,13.68
2022-10-18T17:36:37.875Z,13.69
2022-10-18T17:39:07.278Z,13.66
2022-10-18T17:41:36.117Z,13.63
2022-10-18T17:44:05.953Z,13.66
2022-10-18T17:46:34.811Z,13.60
2022-10-18T17:49:05.301Z,13.58
2022-10-18T17:51:34.184Z,13.51
2022-10-18T17:54:04.935Z,13.52
2022-10-18T17:56:35.887Z,13.49
2022-10-18T17:59:05.052Z,13.44
2022-10-18T18:01:33.907Z,13.40
2022-10-18T18:04:05.431Z,13.42
2022-10-18T18:06:36.374Z,13.40
2022-10-18T18:09:08.068Z,13.39
2022-10-18T18:11:38.602Z,13.38
2022-10-18T18:14:09.666Z,13.38
2022-10-18T18:16:40.556Z,13.31
2022-10-18T18:19:11.547Z,13.30
2022-10-18T18:21:41.532Z,13.24
2022-10-18T18:24:11.325Z,13.15
2022-10-18T18:26:41.479Z,13.06
2022-10-18T18:29:12.587Z,13.01
2022-10-18T18:31:44.054Z,13.00
2022-10-18T18:34:14.604Z,12.98
2022-10-18T18:36:43.885Z,12.99
2022-10-18T18:39:21.231Z,12.98
2022-10-18T18:41:51.660Z,12.98
2022-10-18T18:44:21.621Z,12.95
2022-10-18T18:46:50.829Z,12.88
2022-10-18T18:49:21.361Z,12.84
2022-10-18T18:51:50.233Z,12.87
2022-10-18T18:54:19.394Z,12.90
2022-10-18T18:56:48.374Z,12.89
2022-10-18T18:59:18.410Z,12.90
2022-10-18T19:01:47.486Z,12.88
2022-10-18T19:04:17.041Z,12.89
2022-10-18T19:06:47.607Z,12.89
2022-10-18T19:09:22.001Z,12.93
2022-10-18T19:11:52.975Z,12.95
2022-10-18T19:14:24.170Z,12.97
2022-10-18T19:16:55.319Z,12.96
2022-10-18T19:19:26.257Z,12.95
2022-10-18T19:21:58.102Z,12.97
2022-10-18T19:24:30.285Z,12.97
2022-10-18T19:27:01.374Z,12.98
2022-10-18T19:29:32.953Z,12.96
2022-10-18T19:32:03.684Z,12.95
2022-10-18T19:34:34.836Z,12.96
2022-10-18T19:37:05.348Z,12.95
2022-10-18T19:39:35.883Z,12.99
2022-10-18T19:42:07.132Z,12.99
2022-10-18T19:44:37.968Z,13.00
2022-10-18T19:47:08.615Z,13.00
2022-10-18T19:49:37.858Z,13.01
2022-10-18T19:52:08.130Z,13.01
2022-10-18T19:54:37.260Z,13.01
2022-10-18T19:57:06.911Z,13.03
2022-10-18T19:59:36.500Z,13.03
2022-10-18T20:02:05.639Z,13.01
2022-10-18T20:04:35.211Z,13.00
2022-10-18T20:07:50.356Z,12.95
2022-10-18T20:10:52.807Z,13.00
2022-10-18T20:13:48.407Z,12.99
2022-10-18T20:16:26.957Z,12.97
2022-10-18T20:18:58.816Z,12.96
2022-10-18T20:21:29.341Z,12.99
2022-10-18T20:23:59.563Z,12.95
2022-10-18T20:26:28.735Z,12.98
2022-10-18T20:29:00.043Z,13.00
2022-10-18T20:31:31.024Z,12.98
2022-10-18T20:34:01.549Z,12.97
2022-10-18T20:36:31.991Z,13.01
2022-10-18T20:39:02.464Z,13.01
2022-10-18T20:41:33.776Z,12.96
2022-10-18T20:44:05.265Z,12.99
2022-10-18T20:46:36.575Z,13.00
2022-10-18T20:49:06.575Z,13.02
2022-10-18T20:51:36.131Z,13.01
2022-10-18T20:54:07.673Z,13.01
2022-10-18T20:56:38.683Z,13.03
2022-10-18T20:59:10.012Z,13.08
2022-10-18T21:01:40.717Z,13.05
2022-10-18T21:04:11.058Z,13.05
2022-10-18T21:06:42.823Z,13.05
2022-10-18T21:09:15.418Z,13.05
2022-10-18T21:11:47.563Z,13.06
2022-10-18T21:14:18.648Z,13.06
2022-10-18T21:16:48.637Z,13.06
2022-10-18T21:19:19.428Z,13.05
2022-10-18T21:21:51.257Z,13.09
2022-10-18T21:24:22.786Z,13.09
2022-10-18T21:26:51.963Z,13.06
2022-10-18T21:29:22.718Z,13.08
2022-10-18T21:31:55.094Z,13.07
2022-10-18T21:34:24.223Z,13.08
2022-10-18T21:36:53.366Z,13.08
2022-10-18T21:39:25.233Z,13.06
2022-10-18T21:41:54.436Z,13.05
2022-10-18T21:44:23.668Z,13.03
2022-10-18T21:46:52.888Z,13.02
2022-10-18T21:49:24.923Z,12.97
2022-10-18T21:51:54.135Z,13.00
2022-10-18T21:54:24.525Z,12.98
2022-10-18T21:56:53.769Z,13.01
2022-10-18T21:59:22.974Z,13.03
2022-10-18T22:01:53.988Z,13.02
2022-10-18T22:04:24.875Z,13.01
2022-10-18T22:06:54.206Z,13.02
2022-10-18T22:09:24.629Z,13.02
2022-10-18T22:11:55.020Z,13.04
2022-10-18T22:14:24.276Z,12.99
2022-10-18T22:16:53.989Z,12.98
2022-10-18T22:19:23.016Z,13.00
2022-10-18T22:21:52.267Z,12.93
2022-10-18T22:24:21.317Z,12.96
2022-10-18T22:26:52.208Z,12.95
2022-10-18T22:29:22.761Z,12.94
2022-10-18T22:31:53.859Z,12.95
2022-10-18T22:34:24.851Z,12.96
2022-10-18T22:36:54.413Z,12.95
2022-10-18T22:39:24.574Z,12.98
2022-10-18T22:41:56.583Z,12.99
2022-10-18T22:44:26.276Z,13.00
2022-10-18T22:46:55.481Z,13.00
2022-10-18T22:49:24.436Z,12.99
2022-10-18T22:51:53.710Z,12.96
2022-10-18T22:54:22.727Z,12.93
2022-10-18T22:56:51.926Z,12.88
2022-10-18T22:59:22.380Z,12.95
2022-10-18T23:01:51.563Z,12.99
2022-10-18T23:04:20.691Z,12.96
2022-10-18T23:06:50.242Z,12.96
2022-10-18T23:09:19.254Z,12.94
2022-10-18T23:11:50.869Z,12.90
2022-10-18T23:14:21.743Z,12.88
2022-10-18T23:16:50.940Z,12.85
2022-10-18T23:19:19.995Z,12.88
2022-10-18T23:21:49.231Z,12.90
2022-10-18T23:24:18.246Z,12.89
2022-10-18T23:26:47.421Z,12.85
2022-10-18T23:29:16.404Z,12.85
2022-10-18T23:31:46.983Z,12.82
2022-10-18T23:34:16.161Z,12.83
2022-10-18T23:36:45.344Z,12.81
2022-10-18T23:39:14.342Z,12.81
2022-10-18T23:41:43.508Z,12.80
2022-10-18T23:44:12.515Z,12.79
2022-10-18T23:46:41.719Z,12.72
2022-10-18T23:49:12.804Z,12.70
2022-10-18T23:51:42.067Z,12.70
2022-10-18T23:54:11.061Z,12.70
2022-10-18T23:56:40.275Z,12.67
2022-10-18T23:59:09.275Z,12.66
